sensor_id;sensor_type;location;lat;lon;timestamp;P1;durP1;ratioP1;P2;durP2;ratioP2
61291;SDS011;47165;42.664;23.368;2023-06-26T00:01:14;17.15;;;10.75;;
61291;SDS011;47165;42.664;23.368;2023-06-26T00:03:39;20.88;;;11.98;;
61291;SDS011;47165;42.664;23.368;2023-06-26T00:06:05;22.77;;;13.00;;
61291;SDS011;47165;42.664;23.368;2023-06-26T00:08:30;23.23;;;13.70;;
61291;SDS011;47165;42.664;23.368;2023-06-26T00:10:56;16.08;;;9.40;;
61291;SDS011;47165;42.664;23.368;2023-06-26T00:13:22;17.75;;;11.30;;
61291;SDS011;47165;42.664;23.368;2023-06-26T00:15:48;20.00;;;11.57;;
61291;SDS011;47165;42.664;23.368;2023-06-26T00:18:14;19.38;;;11.25;;
61291;SDS011;47165;42.664;23.368;2023-06-26T00:20:39;19.42;;;12.05;;
61291;SDS011;47165;42.664;23.368;2023-06-26T00:23:04;20.88;;;10.80;;
61291;SDS011;47165;42.664;23.368;2023-06-26T00:25:32;7.53;;;4.93;;
61291;SDS011;47165;42.664;23.368;2023-06-26T00:27:58;16.58;;;9.20;;
61291;SDS011;47165;42.664;23.368;2023-06-26T00:30:24;19.92;;;10.57;;
61291;SDS011;47165;42.664;23.368;2023-06-26T00:32:49;10.35;;;6.63;;
61291;SDS011;47165;42.664;23.368;2023-06-26T00:35:16;16.25;;;9.65;;
61291;SDS011;47165;42.664;23.368;2023-06-26T00:37:41;16.42;;;10.45;;
61291;SDS011;47165;42.664;23.368;2023-06-26T00:40:07;18.40;;;8.13;;
61291;SDS011;47165;42.664;23.368;2023-06-26T00:42:32;14.70;;;9.20;;
61291;SDS011;47165;42.664;23.368;2023-06-26T00:44:58;18.70;;;8.63;;
61291;SDS011;47165;42.664;23.368;2023-06-26T00:47:23;11.05;;;5.85;;
61291;SDS011;47165;42.664;23.368;2023-06-26T00:49:50;15.88;;;10.35;;
61291;SDS011;47165;42.664;23.368;2023-06-26T00:52:16;15.07;;;9.82;;
61291;SDS011;47165;42.664;23.368;2023-06-26T00:54:41;17.30;;;11.27;;
61291;SDS011;47165;42.664;23.368;2023-06-26T00:57:07;14.63;;;10.30;;
61291;SDS011;47165;42.664;23.368;2023-06-26T00:59:33;15.68;;;8.73;;
61291;SDS011;47165;42.664;23.368;2023-06-26T01:01:59;12.50;;;7.88;;
61291;SDS011;47165;42.664;23.368;2023-06-26T01:04:25;13.50;;;9.52;;
61291;SDS011;47165;42.664;23.368;2023-06-26T01:06:52;18.05;;;7.38;;
61291;SDS011;47165;42.664;23.368;2023-06-26T01:09:20;13.05;;;8.10;;
61291;SDS011;47165;42.664;23.368;2023-06-26T01:11:47;11.95;;;6.15;;
61291;SDS011;47165;42.664;23.368;2023-06-26T01:14:13;14.90;;;10.07;;
61291;SDS011;47165;42.664;23.368;2023-06-26T01:16:39;10.73;;;5.82;;
61291;SDS011;47165;42.664;23.368;2023-06-26T01:19:09;15.57;;;8.27;;
61291;SDS011;47165;42.664;23.368;2023-06-26T01:21:39;10.38;;;4.22;;
61291;SDS011;47165;42.664;23.368;2023-06-26T01:24:17;18.58;;;9.48;;
61291;SDS011;47165;42.664;23.368;2023-06-26T01:26:47;13.48;;;7.82;;
61291;SDS011;47165;42.664;23.368;2023-06-26T01:29:15;14.70;;;8.88;;
61291;SDS011;47165;42.664;23.368;2023-06-26T01:31:43;12.35;;;6.45;;
61291;SDS011;47165;42.664;23.368;2023-06-26T01:34:09;20.77;;;9.60;;
61291;SDS011;47165;42.664;23.368;2023-06-26T01:36:35;12.55;;;8.55;;
61291;SDS011;47165;42.664;23.368;2023-06-26T01:39:02;12.57;;;7.68;;
61291;SDS011;47165;42.664;23.368;2023-06-26T01:41:27;16.10;;;8.85;;
61291;SDS011;47165;42.664;23.368;2023-06-26T01:43:57;13.23;;;8.65;;
61291;SDS011;47165;42.664;23.368;2023-06-26T01:46:35;13.10;;;8.23;;
61291;SDS011;47165;42.664;23.368;2023-06-26T01:49:15;19.10;;;10.25;;
61291;SDS011;47165;42.664;23.368;2023-06-26T01:57:09;17.73;;;10.68;;
61291;SDS011;47165;42.664;23.368;2023-06-26T01:59:35;12.85;;;5.57;;
61291;SDS011;47165;42.664;23.368;2023-06-26T02:02:06;13.07;;;8.15;;
61291;SDS011;47165;42.664;23.368;2023-06-26T02:04:32;14.40;;;8.85;;
61291;SDS011;47165;42.664;23.368;2023-06-26T02:06:57;10.88;;;6.57;;
61291;SDS011;47165;42.664;23.368;2023-06-26T02:09:23;13.93;;;8.57;;
61291;SDS011;47165;42.664;23.368;2023-06-26T02:11:48;15.00;;;8.70;;
61291;SDS011;47165;42.664;23.368;2023-06-26T02:14:13;8.73;;;6.25;;
61291;SDS011;47165;42.664;23.368;2023-06-26T02:16:39;12.18;;;8.55;;
61291;SDS011;47165;42.664;23.368;2023-06-26T02:19:04;12.10;;;9.27;;
61291;SDS011;47165;42.664;23.368;2023-06-26T02:21:30;16.10;;;10.50;;
61291;SDS011;47165;42.664;23.368;2023-06-26T02:23:55;10.95;;;6.00;;
61291;SDS011;47165;42.664;23.368;2023-06-26T02:26:20;11.00;;;7.07;;
61291;SDS011;47165;42.664;23.368;2023-06-26T02:28:46;13.25;;;8.30;;
61291;SDS011;47165;42.664;23.368;2023-06-26T02:31:11;18.15;;;9.82;;
61291;SDS011;47165;42.664;23.368;2023-06-26T02:33:37;14.65;;;10.63;;
61291;SDS011;47165;42.664;23.368;2023-06-26T02:36:02;13.93;;;8.55;;
61291;SDS011;47165;42.664;23.368;2023-06-26T02:38:28;15.25;;;10.38;;
61291;SDS011;47165;42.664;23.368;2023-06-26T02:40:53;17.13;;;11.52;;
61291;SDS011;47165;42.664;23.368;2023-06-26T02:43:18;18.40;;;12.50;;
61291;SDS011;47165;42.664;23.368;2023-06-26T02:45:44;18.60;;;12.48;;
61291;SDS011;47165;42.664;23.368;2023-06-26T02:48:09;15.50;;;9.60;;
61291;SDS011;47165;42.664;23.368;2023-06-26T02:50:35;16.58;;;10.80;;
61291;SDS011;47165;42.664;23.368;2023-06-26T02:53:00;16.02;;;10.98;;
61291;SDS011;47165;42.664;23.368;2023-06-26T02:55:25;14.93;;;9.10;;
61291;SDS011;47165;42.664;23.368;2023-06-26T02:57:52;15.52;;;9.73;;
61291;SDS011;47165;42.664;23.368;2023-06-26T03:00:17;18.27;;;11.88;;
61291;SDS011;47165;42.664;23.368;2023-06-26T03:02:43;14.82;;;9.60;;
61291;SDS011;47165;42.664;23.368;2023-06-26T03:05:08;23.17;;;13.63;;
61291;SDS011;47165;42.664;23.368;2023-06-26T03:07:34;19.92;;;11.20;;
61291;SDS011;47165;42.664;23.368;2023-06-26T03:09:59;20.58;;;13.55;;
61291;SDS011;47165;42.664;23.368;2023-06-26T03:12:25;16.30;;;10.60;;
61291;SDS011;47165;42.664;23.368;2023-06-26T03:14:50;14.98;;;10.02;;
61291;SDS011;47165;42.664;23.368;2023-06-26T03:17:16;20.10;;;11.98;;
61291;SDS011;47165;42.664;23.368;2023-06-26T03:19:41;22.98;;;12.93;;
61291;SDS011;47165;42.664;23.368;2023-06-26T03:22:07;17.23;;;10.93;;
61291;SDS011;47165;42.664;23.368;2023-06-26T03:24:33;12.02;;;7.38;;
61291;SDS011;47165;42.664;23.368;2023-06-26T03:26:58;13.68;;;9.25;;
61291;SDS011;47165;42.664;23.368;2023-06-26T03:29:24;20.10;;;12.68;;
61291;SDS011;47165;42.664;23.368;2023-06-26T03:31:50;17.95;;;11.98;;
61291;SDS011;47165;42.664;23.368;2023-06-26T03:34:15;11.07;;;6.97;;
61291;SDS011;47165;42.664;23.368;2023-06-26T03:36:41;13.98;;;9.05;;
61291;SDS011;47165;42.664;23.368;2023-06-26T03:39:06;18.65;;;11.73;;
61291;SDS011;47165;42.664;23.368;2023-06-26T03:41:32;17.83;;;10.98;;
61291;SDS011;47165;42.664;23.368;2023-06-26T03:43:57;21.83;;;13.27;;
61291;SDS011;47165;42.664;23.368;2023-06-26T03:46:25;12.68;;;7.65;;
61291;SDS011;47165;42.664;23.368;2023-06-26T03:48:50;20.83;;;12.00;;
61291;SDS011;47165;42.664;23.368;2023-06-26T03:51:16;19.60;;;10.00;;
61291;SDS011;47165;42.664;23.368;2023-06-26T03:53:41;25.92;;;12.13;;
61291;SDS011;47165;42.664;23.368;2023-06-26T03:56:06;19.02;;;11.10;;
61291;SDS011;47165;42.664;23.368;2023-06-26T03:58:32;18.30;;;11.98;;
61291;SDS011;47165;42.664;23.368;2023-06-26T04:00:57;18.60;;;10.85;;
61291;SDS011;47165;42.664;23.368;2023-06-26T04:03:23;17.17;;;10.23;;
61291;SDS011;47165;42.664;23.368;2023-06-26T04:05:49;21.88;;;14.25;;
61291;SDS011;47165;42.664;23.368;2023-06-26T04:08:14;19.95;;;12.15;;
61291;SDS011;47165;42.664;23.368;2023-06-26T04:10:40;16.45;;;8.88;;
61291;SDS011;47165;42.664;23.368;2023-06-26T04:13:05;19.35;;;12.75;;
61291;SDS011;47165;42.664;23.368;2023-06-26T04:15:31;10.80;;;7.45;;
61291;SDS011;47165;42.664;23.368;2023-06-26T04:17:56;19.67;;;11.20;;
61291;SDS011;47165;42.664;23.368;2023-06-26T04:20:21;16.38;;;11.25;;
61291;SDS011;47165;42.664;23.368;2023-06-26T04:22:47;20.50;;;13.02;;
61291;SDS011;47165;42.664;23.368;2023-06-26T04:25:12;22.55;;;14.20;;
61291;SDS011;47165;42.664;23.368;2023-06-26T04:27:38;17.02;;;8.52;;
61291;SDS011;47165;42.664;23.368;2023-06-26T04:30:04;14.88;;;10.18;;
61291;SDS011;47165;42.664;23.368;2023-06-26T04:32:30;21.48;;;13.52;;
61291;SDS011;47165;42.664;23.368;2023-06-26T04:34:55;18.92;;;11.13;;
61291;SDS011;47165;42.664;23.368;2023-06-26T04:37:21;20.80;;;13.05;;
61291;SDS011;47165;42.664;23.368;2023-06-26T04:39:47;16.42;;;9.52;;
61291;SDS011;47165;42.664;23.368;2023-06-26T04:42:13;17.58;;;11.30;;
61291;SDS011;47165;42.664;23.368;2023-06-26T04:44:38;12.27;;;8.38;;
61291;SDS011;47165;42.664;23.368;2023-06-26T04:47:06;14.52;;;10.02;;
61291;SDS011;47165;42.664;23.368;2023-06-26T04:49:31;16.27;;;11.13;;
61291;SDS011;47165;42.664;23.368;2023-06-26T04:51:57;15.05;;;8.63;;
61291;SDS011;47165;42.664;23.368;2023-06-26T04:54:25;17.52;;;12.60;;
61291;SDS011;47165;42.664;23.368;2023-06-26T04:56:50;18.40;;;11.85;;
61291;SDS011;47165;42.664;23.368;2023-06-26T04:59:16;17.48;;;11.98;;
61291;SDS011;47165;42.664;23.368;2023-06-26T05:01:41;21.88;;;11.48;;
61291;SDS011;47165;42.664;23.368;2023-06-26T05:04:07;18.85;;;10.65;;
61291;SDS011;47165;42.664;23.368;2023-06-26T05:06:33;20.23;;;12.80;;
61291;SDS011;47165;42.664;23.368;2023-06-26T05:08:58;21.67;;;13.15;;
61291;SDS011;47165;42.664;23.368;2023-06-26T05:11:24;12.43;;;9.38;;
61291;SDS011;47165;42.664;23.368;2023-06-26T05:13:50;19.70;;;11.60;;
61291;SDS011;47165;42.664;23.368;2023-06-26T05:16:15;12.38;;;7.90;;
61291;SDS011;47165;42.664;23.368;2023-06-26T05:18:41;18.55;;;13.18;;
61291;SDS011;47165;42.664;23.368;2023-06-26T05:21:06;20.42;;;14.70;;
61291;SDS011;47165;42.664;23.368;2023-06-26T05:23:32;24.88;;;18.15;;
61291;SDS011;47165;42.664;23.368;2023-06-26T05:26:00;18.33;;;15.20;;
61291;SDS011;47165;42.664;23.368;2023-06-26T05:28:27;21.13;;;13.50;;
61291;SDS011;47165;42.664;23.368;2023-06-26T05:30:53;17.83;;;13.57;;
61291;SDS011;47165;42.664;23.368;2023-06-26T05:33:20;20.98;;;14.60;;
61291;SDS011;47165;42.664;23.368;2023-06-26T05:35:48;18.00;;;13.50;;
61291;SDS011;47165;42.664;23.368;2023-06-26T05:38:14;19.08;;;13.30;;
61291;SDS011;47165;42.664;23.368;2023-06-26T05:40:40;17.60;;;12.82;;
61291;SDS011;47165;42.664;23.368;2023-06-26T05:43:06;17.08;;;12.23;;
61291;SDS011;47165;42.664;23.368;2023-06-26T05:45:32;20.25;;;13.45;;
61291;SDS011;47165;42.664;23.368;2023-06-26T05:47:58;18.05;;;13.77;;
61291;SDS011;47165;42.664;23.368;2023-06-26T05:50:24;20.58;;;12.75;;
61291;SDS011;47165;42.664;23.368;2023-06-26T05:52:50;14.57;;;12.32;;
61291;SDS011;47165;42.664;23.368;2023-06-26T05:55:16;19.00;;;12.23;;
61291;SDS011;47165;42.664;23.368;2023-06-26T05:57:42;16.13;;;12.13;;
61291;SDS011;47165;42.664;23.368;2023-06-26T06:00:08;15.23;;;11.13;;
61291;SDS011;47165;42.664;23.368;2023-06-26T06:02:37;17.58;;;13.18;;
61291;SDS011;47165;42.664;23.368;2023-06-26T06:05:03;16.73;;;11.77;;
61291;SDS011;47165;42.664;23.368;2023-06-26T06:07:29;15.32;;;10.88;;
61291;SDS011;47165;42.664;23.368;2023-06-26T06:09:54;19.38;;;13.18;;
61291;SDS011;47165;42.664;23.368;2023-06-26T06:12:20;15.98;;;11.50;;
61291;SDS011;47165;42.664;23.368;2023-06-26T06:17:10;17.42;;;13.30;;
61291;SDS011;47165;42.664;23.368;2023-06-26T06:19:36;15.30;;;11.25;;
61291;SDS011;47165;42.664;23.368;2023-06-26T06:22:01;16.73;;;12.77;;
61291;SDS011;47165;42.664;23.368;2023-06-26T06:24:27;21.67;;;12.80;;
61291;SDS011;47165;42.664;23.368;2023-06-26T06:26:52;18.75;;;12.10;;
61291;SDS011;47165;42.664;23.368;2023-06-26T06:29:18;15.43;;;11.85;;
61291;SDS011;47165;42.664;23.368;2023-06-26T06:31:44;15.30;;;11.15;;
61291;SDS011;47165;42.664;23.368;2023-06-26T06:34:09;14.75;;;10.43;;
61291;SDS011;47165;42.664;23.368;2023-06-26T06:36:35;16.27;;;11.85;;
61291;SDS011;47165;42.664;23.368;2023-06-26T06:39:00;19.73;;;12.68;;
61291;SDS011;47165;42.664;23.368;2023-06-26T06:41:26;16.55;;;12.57;;
61291;SDS011;47165;42.664;23.368;2023-06-26T06:43:51;18.05;;;13.25;;
61291;SDS011;47165;42.664;23.368;2023-06-26T06:46:16;16.95;;;12.73;;
61291;SDS011;47165;42.664;23.368;2023-06-26T06:48:42;18.73;;;13.13;;
61291;SDS011;47165;42.664;23.368;2023-06-26T06:51:07;14.80;;;11.55;;
61291;SDS011;47165;42.664;23.368;2023-06-26T06:53:33;18.20;;;11.30;;
61291;SDS011;47165;42.664;23.368;2023-06-26T06:55:58;16.05;;;11.15;;
61291;SDS011;47165;42.664;23.368;2023-06-26T06:58:24;21.80;;;11.23;;
61291;SDS011;47165;42.664;23.368;2023-06-26T07:00:49;20.52;;;11.68;;
61291;SDS011;47165;42.664;23.368;2023-06-26T07:03:17;19.02;;;11.98;;
61291;SDS011;47165;42.664;23.368;2023-06-26T07:05:42;14.13;;;10.45;;
61291;SDS011;47165;42.664;23.368;2023-06-26T07:08:08;15.98;;;10.85;;
61291;SDS011;47165;42.664;23.368;2023-06-26T07:10:33;16.00;;;10.70;;
61291;SDS011;47165;42.664;23.368;2023-06-26T07:12:59;15.00;;;10.48;;
61291;SDS011;47165;42.664;23.368;2023-06-26T07:15:24;16.42;;;11.50;;
61291;SDS011;47165;42.664;23.368;2023-06-26T07:17:50;13.15;;;10.18;;
61291;SDS011;47165;42.664;23.368;2023-06-26T07:20:15;14.02;;;9.73;;
61291;SDS011;47165;42.664;23.368;2023-06-26T07:22:41;13.95;;;9.90;;
61291;SDS011;47165;42.664;23.368;2023-06-26T07:25:08;13.15;;;8.95;;
61291;SDS011;47165;42.664;23.368;2023-06-26T07:27:39;11.43;;;8.30;;
61291;SDS011;47165;42.664;23.368;2023-06-26T07:30:06;13.18;;;8.13;;
61291;SDS011;47165;42.664;23.368;2023-06-26T07:32:35;13.30;;;8.75;;
61291;SDS011;47165;42.664;23.368;2023-06-26T07:35:01;14.32;;;7.80;;
61291;SDS011;47165;42.664;23.368;2023-06-26T07:37:26;12.48;;;8.93;;
61291;SDS011;47165;42.664;23.368;2023-06-26T07:39:51;12.45;;;8.27;;
61291;SDS011;47165;42.664;23.368;2023-06-26T07:42:17;11.32;;;7.60;;
61291;SDS011;47165;42.664;23.368;2023-06-26T07:44:43;12.07;;;8.02;;
61291;SDS011;47165;42.664;23.368;2023-06-26T07:47:08;10.65;;;7.18;;
61291;SDS011;47165;42.664;23.368;2023-06-26T07:49:34;10.63;;;7.78;;
61291;SDS011;47165;42.664;23.368;2023-06-26T07:52:00;11.23;;;7.50;;
61291;SDS011;47165;42.664;23.368;2023-06-26T07:54:26;9.05;;;7.00;;
61291;SDS011;47165;42.664;23.368;2023-06-26T07:56:52;12.68;;;7.57;;
61291;SDS011;47165;42.664;23.368;2023-06-26T07:59:21;9.82;;;7.00;;
61291;SDS011;47165;42.664;23.368;2023-06-26T08:01:48;9.18;;;6.95;;
61291;SDS011;47165;42.664;23.368;2023-06-26T08:04:15;11.68;;;6.53;;
61291;SDS011;47165;42.664;23.368;2023-06-26T08:06:40;13.48;;;6.65;;
61291;SDS011;47165;42.664;23.368;2023-06-26T08:09:06;6.82;;;5.70;;
61291;SDS011;47165;42.664;23.368;2023-06-26T08:11:35;9.57;;;6.03;;
61291;SDS011;47165;42.664;23.368;2023-06-26T08:14:00;12.95;;;6.80;;
61291;SDS011;47165;42.664;23.368;2023-06-26T08:16:26;10.27;;;7.30;;
61291;SDS011;47165;42.664;23.368;2023-06-26T08:18:51;9.02;;;6.30;;
61291;SDS011;47165;42.664;23.368;2023-06-26T08:21:17;8.00;;;5.82;;
61291;SDS011;47165;42.664;23.368;2023-06-26T08:23:42;7.68;;;5.53;;
61291;SDS011;47165;42.664;23.368;2023-06-26T08:26:07;10.30;;;6.50;;
61291;SDS011;47165;42.664;23.368;2023-06-26T08:28:33;7.72;;;6.30;;
61291;SDS011;47165;42.664;23.368;2023-06-26T08:30:58;8.38;;;6.32;;
61291;SDS011;47165;42.664;23.368;2023-06-26T08:33:24;10.25;;;5.95;;
61291;SDS011;47165;42.664;23.368;2023-06-26T08:35:50;9.45;;;5.13;;
61291;SDS011;47165;42.664;23.368;2023-06-26T08:38:15;12.02;;;6.60;;
61291;SDS011;47165;42.664;23.368;2023-06-26T08:40:41;7.65;;;5.45;;
61291;SDS011;47165;42.664;23.368;2023-06-26T08:43:06;5.90;;;4.75;;
61291;SDS011;47165;42.664;23.368;2023-06-26T08:45:32;8.68;;;7.03;;
61291;SDS011;47165;42.664;23.368;2023-06-26T08:47:58;9.30;;;5.57;;
61291;SDS011;47165;42.664;23.368;2023-06-26T08:50:25;8.48;;;6.80;;
61291;SDS011;47165;42.664;23.368;2023-06-26T08:55:20;7.72;;;5.55;;
61291;SDS011;47165;42.664;23.368;2023-06-26T08:57:50;7.47;;;5.43;;
61291;SDS011;47165;42.664;23.368;2023-06-26T09:00:16;6.25;;;5.10;;
61291;SDS011;47165;42.664;23.368;2023-06-26T09:02:43;10.40;;;5.68;;
61291;SDS011;47165;42.664;23.368;2023-06-26T09:05:09;7.13;;;4.72;;
61291;SDS011;47165;42.664;23.368;2023-06-26T09:07:34;7.50;;;4.88;;
61291;SDS011;47165;42.664;23.368;2023-06-26T09:10:00;7.00;;;4.75;;
61291;SDS011;47165;42.664;23.368;2023-06-26T09:12:28;9.75;;;4.97;;
61291;SDS011;47165;42.664;23.368;2023-06-26T09:14:56;12.07;;;5.13;;
61291;SDS011;47165;42.664;23.368;2023-06-26T09:17:25;7.95;;;5.43;;
61291;SDS011;47165;42.664;23.368;2023-06-26T09:19:54;9.70;;;6.55;;
61291;SDS011;47165;42.664;23.368;2023-06-26T09:22:19;8.23;;;5.47;;
61291;SDS011;47165;42.664;23.368;2023-06-26T09:24:45;7.30;;;5.22;;
61291;SDS011;47165;42.664;23.368;2023-06-26T09:27:10;7.13;;;5.25;;
61291;SDS011;47165;42.664;23.368;2023-06-26T09:29:36;6.70;;;5.10;;
61291;SDS011;47165;42.664;23.368;2023-06-26T09:32:02;8.05;;;5.70;;
61291;SDS011;47165;42.664;23.368;2023-06-26T09:34:31;8.35;;;5.22;;
61291;SDS011;47165;42.664;23.368;2023-06-26T09:36:58;8.68;;;5.15;;
61291;SDS011;47165;42.664;23.368;2023-06-26T09:39:24;6.22;;;4.65;;
61291;SDS011;47165;42.664;23.368;2023-06-26T09:41:49;6.38;;;4.80;;
61291;SDS011;47165;42.664;23.368;2023-06-26T09:44:15;7.82;;;5.25;;
61291;SDS011;47165;42.664;23.368;2023-06-26T09:46:41;7.80;;;4.82;;
61291;SDS011;47165;42.664;23.368;2023-06-26T09:49:10;6.85;;;4.22;;
61291;SDS011;47165;42.664;23.368;2023-06-26T09:51:37;6.20;;;4.88;;
61291;SDS011;47165;42.664;23.368;2023-06-26T09:54:05;13.43;;;4.93;;
61291;SDS011;47165;42.664;23.368;2023-06-26T09:56:31;5.28;;;4.53;;
61291;SDS011;47165;42.664;23.368;2023-06-26T09:58:58;8.07;;;4.50;;
61291;SDS011;47165;42.664;23.368;2023-06-26T10:01:26;6.70;;;4.97;;
61291;SDS011;47165;42.664;23.368;2023-06-26T10:03:53;8.20;;;6.20;;
61291;SDS011;47165;42.664;23.368;2023-06-26T10:09:01;9.35;;;5.07;;
61291;SDS011;47165;42.664;23.368;2023-06-26T10:14:11;10.70;;;6.88;;
61291;SDS011;47165;42.664;23.368;2023-06-26T10:16:37;10.02;;;4.38;;
61291;SDS011;47165;42.664;23.368;2023-06-26T10:19:08;8.65;;;5.38;;
61291;SDS011;47165;42.664;23.368;2023-06-26T10:21:35;6.75;;;5.13;;
61291;SDS011;47165;42.664;23.368;2023-06-26T10:24:04;8.43;;;4.70;;
61291;SDS011;47165;42.664;23.368;2023-06-26T10:26:31;7.85;;;5.88;;
61291;SDS011;47165;42.664;23.368;2023-06-26T10:29:02;8.57;;;4.45;;
61291;SDS011;47165;42.664;23.368;2023-06-26T10:31:29;8.52;;;5.30;;
61291;SDS011;47165;42.664;23.368;2023-06-26T10:33:57;9.77;;;6.38;;
61291;SDS011;47165;42.664;23.368;2023-06-26T10:36:30;6.82;;;4.80;;
61291;SDS011;47165;42.664;23.368;2023-06-26T10:38:56;12.82;;;6.68;;
61291;SDS011;47165;42.664;23.368;2023-06-26T10:41:24;11.02;;;5.05;;
61291;SDS011;47165;42.664;23.368;2023-06-26T10:43:51;7.25;;;5.05;;
61291;SDS011;47165;42.664;23.368;2023-06-26T10:51:37;7.30;;;4.55;;
61291;SDS011;47165;42.664;23.368;2023-06-26T10:54:02;9.02;;;4.72;;
61291;SDS011;47165;42.664;23.368;2023-06-26T10:56:41;8.32;;;4.70;;
61291;SDS011;47165;42.664;23.368;2023-06-26T10:59:12;8.35;;;5.25;;
61291;SDS011;47165;42.664;23.368;2023-06-26T11:01:40;8.77;;;4.90;;
61291;SDS011;47165;42.664;23.368;2023-06-26T11:04:08;8.80;;;4.93;;
61291;SDS011;47165;42.664;23.368;2023-06-26T11:06:35;7.57;;;5.13;;
61291;SDS011;47165;42.664;23.368;2023-06-26T11:14:11;9.38;;;6.22;;
61291;SDS011;47165;42.664;23.368;2023-06-26T11:16:37;7.80;;;5.72;;
61291;SDS011;47165;42.664;23.368;2023-06-26T11:19:03;8.98;;;5.82;;
61291;SDS011;47165;42.664;23.368;2023-06-26T11:21:29;10.15;;;5.03;;
61291;SDS011;47165;42.664;23.368;2023-06-26T11:23:55;5.93;;;4.90;;
61291;SDS011;47165;42.664;23.368;2023-06-26T11:26:25;11.15;;;5.53;;
61291;SDS011;47165;42.664;23.368;2023-06-26T11:28:53;10.13;;;6.88;;
61291;SDS011;47165;42.664;23.368;2023-06-26T11:31:23;7.50;;;5.55;;
61291;SDS011;47165;42.664;23.368;2023-06-26T11:33:56;10.15;;;5.90;;
61291;SDS011;47165;42.664;23.368;2023-06-26T11:36:23;10.63;;;6.07;;
61291;SDS011;47165;42.664;23.368;2023-06-26T11:38:59;6.55;;;5.30;;
61291;SDS011;47165;42.664;23.368;2023-06-26T11:41:27;6.97;;;4.50;;
61291;SDS011;47165;42.664;23.368;2023-06-26T11:43:56;7.50;;;5.18;;
61291;SDS011;47165;42.664;23.368;2023-06-26T11:46:25;6.07;;;4.38;;
61291;SDS011;47165;42.664;23.368;2023-06-26T11:48:51;6.93;;;5.00;;
61291;SDS011;47165;42.664;23.368;2023-06-26T11:51:17;7.57;;;4.65;;
61291;SDS011;47165;42.664;23.368;2023-06-26T11:53:43;7.72;;;5.00;;
61291;SDS011;47165;42.664;23.368;2023-06-26T11:56:12;8.63;;;4.70;;
61291;SDS011;47165;42.664;23.368;2023-06-26T12:01:15;9.45;;;4.95;;
61291;SDS011;47165;42.664;23.368;2023-06-26T12:03:41;7.22;;;4.90;;
61291;SDS011;47165;42.664;23.368;2023-06-26T12:06:06;8.38;;;5.22;;
61291;SDS011;47165;42.664;23.368;2023-06-26T12:08:32;8.48;;;5.07;;
61291;SDS011;47165;42.664;23.368;2023-06-26T12:10:57;6.20;;;4.50;;
61291;SDS011;47165;42.664;23.368;2023-06-26T12:13:23;7.90;;;4.82;;
61291;SDS011;47165;42.664;23.368;2023-06-26T12:15:49;8.10;;;5.97;;
61291;SDS011;47165;42.664;23.368;2023-06-26T12:18:15;8.77;;;5.20;;
61291;SDS011;47165;42.664;23.368;2023-06-26T12:20:40;8.77;;;4.55;;
61291;SDS011;47165;42.664;23.368;2023-06-26T12:23:12;7.05;;;4.70;;
61291;SDS011;47165;42.664;23.368;2023-06-26T12:25:38;8.13;;;4.40;;
61291;SDS011;47165;42.664;23.368;2023-06-26T12:28:03;9.75;;;4.72;;
61291;SDS011;47165;42.664;23.368;2023-06-26T12:30:46;8.88;;;5.78;;
61291;SDS011;47165;42.664;23.368;2023-06-26T12:33:14;5.93;;;4.35;;
61291;SDS011;47165;42.664;23.368;2023-06-26T12:35:41;7.68;;;5.00;;
61291;SDS011;47165;42.664;23.368;2023-06-26T12:38:08;5.82;;;4.40;;
61291;SDS011;47165;42.664;23.368;2023-06-26T12:40:35;6.85;;;4.60;;
61291;SDS011;47165;42.664;23.368;2023-06-26T12:43:22;8.18;;;5.20;;
61291;SDS011;47165;42.664;23.368;2023-06-26T12:45:48;7.50;;;4.95;;
61291;SDS011;47165;42.664;23.368;2023-06-26T12:48:13;7.15;;;4.25;;
61291;SDS011;47165;42.664;23.368;2023-06-26T12:50:45;5.93;;;4.65;;
61291;SDS011;47165;42.664;23.368;2023-06-26T12:53:10;7.45;;;5.00;;
61291;SDS011;47165;42.664;23.368;2023-06-26T12:55:36;9.40;;;4.53;;
61291;SDS011;47165;42.664;23.368;2023-06-26T12:58:01;10.38;;;4.65;;
61291;SDS011;47165;42.664;23.368;2023-06-26T13:00:27;8.20;;;4.80;;
61291;SDS011;47165;42.664;23.368;2023-06-26T13:02:52;7.90;;;4.50;;
61291;SDS011;47165;42.664;23.368;2023-06-26T13:05:18;7.68;;;5.32;;
61291;SDS011;47165;42.664;23.368;2023-06-26T13:07:44;7.38;;;5.13;;
61291;SDS011;47165;42.664;23.368;2023-06-26T13:10:09;6.97;;;5.35;;
61291;SDS011;47165;42.664;23.368;2023-06-26T13:12:35;6.05;;;4.53;;
61291;SDS011;47165;42.664;23.368;2023-06-26T13:15:00;6.70;;;4.82;;
61291;SDS011;47165;42.664;23.368;2023-06-26T13:17:26;8.27;;;4.72;;
61291;SDS011;47165;42.664;23.368;2023-06-26T13:19:51;8.95;;;4.47;;
61291;SDS011;47165;42.664;23.368;2023-06-26T13:22:16;6.07;;;4.53;;
61291;SDS011;47165;42.664;23.368;2023-06-26T13:24:42;6.95;;;4.55;;
61291;SDS011;47165;42.664;23.368;2023-06-26T13:27:07;6.80;;;4.70;;
61291;SDS011;47165;42.664;23.368;2023-06-26T13:29:33;12.82;;;5.57;;
61291;SDS011;47165;42.664;23.368;2023-06-26T13:31:58;6.57;;;4.97;;
61291;SDS011;47165;42.664;23.368;2023-06-26T13:34:24;6.35;;;4.95;;
61291;SDS011;47165;42.664;23.368;2023-06-26T13:36:53;8.73;;;4.65;;
61291;SDS011;47165;42.664;23.368;2023-06-26T13:39:19;7.20;;;4.18;;
61291;SDS011;47165;42.664;23.368;2023-06-26T13:41:45;5.88;;;3.90;;
61291;SDS011;47165;42.664;23.368;2023-06-26T13:44:11;6.97;;;4.40;;
61291;SDS011;47165;42.664;23.368;2023-06-26T13:46:37;5.57;;;4.20;;
61291;SDS011;47165;42.664;23.368;2023-06-26T13:49:02;8.77;;;5.13;;
61291;SDS011;47165;42.664;23.368;2023-06-26T13:51:27;6.75;;;5.30;;
61291;SDS011;47165;42.664;23.368;2023-06-26T13:53:53;6.47;;;4.65;;
61291;SDS011;47165;42.664;23.368;2023-06-26T13:56:20;8.02;;;5.00;;
61291;SDS011;47165;42.664;23.368;2023-06-26T13:58:45;4.85;;;3.53;;
61291;SDS011;47165;42.664;23.368;2023-06-26T14:01:10;12.65;;;4.55;;
61291;SDS011;47165;42.664;23.368;2023-06-26T14:03:36;8.65;;;4.43;;
61291;SDS011;47165;42.664;23.368;2023-06-26T14:06:02;8.65;;;4.15;;
61291;SDS011;47165;42.664;23.368;2023-06-26T14:08:27;7.78;;;4.10;;
61291;SDS011;47165;42.664;23.368;2023-06-26T14:10:53;7.95;;;4.30;;
61291;SDS011;47165;42.664;23.368;2023-06-26T14:13:18;7.95;;;4.85;;
61291;SDS011;47165;42.664;23.368;2023-06-26T14:15:44;5.75;;;3.90;;
61291;SDS011;47165;42.664;23.368;2023-06-26T14:18:09;5.82;;;3.60;;
61291;SDS011;47165;42.664;23.368;2023-06-26T14:20:34;5.55;;;3.65;;
61291;SDS011;47165;42.664;23.368;2023-06-26T14:23:01;7.72;;;3.95;;
61291;SDS011;47165;42.664;23.368;2023-06-26T14:25:27;4.07;;;2.95;;
61291;SDS011;47165;42.664;23.368;2023-06-26T14:27:53;5.32;;;3.75;;
61291;SDS011;47165;42.664;23.368;2023-06-26T14:30:20;7.30;;;3.63;;
61291;SDS011;47165;42.664;23.368;2023-06-26T14:32:46;5.60;;;3.80;;
61291;SDS011;47165;42.664;23.368;2023-06-26T14:35:11;5.88;;;3.88;;
61291;SDS011;47165;42.664;23.368;2023-06-26T14:37:36;7.35;;;4.45;;
61291;SDS011;47165;42.664;23.368;2023-06-26T14:40:04;5.80;;;3.72;;
61291;SDS011;47165;42.664;23.368;2023-06-26T14:42:31;6.97;;;4.30;;
61291;SDS011;47165;42.664;23.368;2023-06-26T14:44:57;5.57;;;4.05;;
61291;SDS011;47165;42.664;23.368;2023-06-26T14:47:22;8.05;;;3.97;;